sensor_id;sensor_type;location;lat;lon;timestamp;P1;durP1;ratioP1;P2;durP2;ratioP2
73154;SDS011;66341;52.418;7.382;2023-04-25T00:01:04;1.45;;;1.45;;
73154;SDS011;66341;52.418;7.382;2023-04-25T00:03:34;1.59;;;1.59;;
73154;SDS011;66341;52.418;7.382;2023-04-25T00:06:00;1.60;;;1.60;;
73154;SDS011;66341;52.418;7.382;2023-04-25T00:08:28;1.62;;;1.62;;
73154;SDS011;66341;52.418;7.382;2023-04-25T00:10:56;1.58;;;1.58;;
73154;SDS011;66341;52.418;7.382;2023-04-25T00:13:21;1.44;;;1.44;;
73154;SDS011;66341;52.418;7.382;2023-04-25T00:15:47;1.44;;;1.44;;
73154;SDS011;66341;52.418;7.382;2023-04-25T00:18:14;1.42;;;1.41;;
73154;SDS011;66341;52.418;7.382;2023-04-25T00:20:40;1.29;;;1.29;;
73154;SDS011;66341;52.418;7.382;2023-04-25T00:23:09;1.35;;;1.35;;
73154;SDS011;66341;52.418;7.382;2023-04-25T00:25:35;1.37;;;1.37;;
73154;SDS011;66341;52.418;7.382;2023-04-25T00:28:01;1.25;;;1.25;;
73154;SDS011;66341;52.418;7.382;2023-04-25T00:30:26;1.34;;;1.34;;
73154;SDS011;66341;52.418;7.382;2023-04-25T00:32:52;1.35;;;1.35;;
73154;SDS011;66341;52.418;7.382;2023-04-25T00:35:18;1.35;;;1.35;;
73154;SDS011;66341;52.418;7.382;2023-04-25T00:37:44;1.40;;;1.40;;
73154;SDS011;66341;52.418;7.382;2023-04-25T00:40:10;1.25;;;1.25;;
73154;SDS011;66341;52.418;7.382;2023-04-25T00:42:36;1.46;;;1.46;;
73154;SDS011;66341;52.418;7.382;2023-04-25T00:45:04;1.20;;;1.20;;
73154;SDS011;66341;52.418;7.382;2023-04-25T00:47:30;1.20;;;1.19;;
73154;SDS011;66341;52.418;7.382;2023-04-25T00:49:58;1.27;;;1.26;;
73154;SDS011;66341;52.418;7.382;2023-04-25T00:52:23;1.05;;;1.04;;
73154;SDS011;66341;52.418;7.382;2023-04-25T00:54:49;1.19;;;1.19;;
73154;SDS011;66341;52.418;7.382;2023-04-25T00:57:15;1.15;;;1.15;;
73154;SDS011;66341;52.418;7.382;2023-04-25T00:59:42;1.19;;;1.19;;
73154;SDS011;66341;52.418;7.382;2023-04-25T01:02:11;1.17;;;1.17;;
73154;SDS011;66341;52.418;7.382;2023-04-25T01:04:36;1.13;;;1.13;;
73154;SDS011;66341;52.418;7.382;2023-04-25T01:07:02;1.16;;;1.16;;
73154;SDS011;66341;52.418;7.382;2023-04-25T01:09:28;1.06;;;1.06;;
73154;SDS011;66341;52.418;7.382;2023-04-25T01:11:55;1.29;;;1.29;;
73154;SDS011;66341;52.418;7.382;2023-04-25T01:14:22;1.13;;;1.13;;
73154;SDS011;66341;52.418;7.382;2023-04-25T01:16:48;1.07;;;1.07;;
73154;SDS011;66341;52.418;7.382;2023-04-25T01:19:14;1.23;;;1.23;;
73154;SDS011;66341;52.418;7.382;2023-04-25T01:21:41;1.24;;;1.24;;
73154;SDS011;66341;52.418;7.382;2023-04-25T01:24:07;1.21;;;1.21;;
73154;SDS011;66341;52.418;7.382;2023-04-25T01:26:33;1.09;;;1.09;;
73154;SDS011;66341;52.418;7.382;2023-04-25T01:29:00;1.15;;;1.15;;
73154;SDS011;66341;52.418;7.382;2023-04-25T01:31:26;1.21;;;1.21;;
73154;SDS011;66341;52.418;7.382;2023-04-25T01:33:53;1.20;;;1.20;;
73154;SDS011;66341;52.418;7.382;2023-04-25T01:36:18;1.23;;;1.23;;
73154;SDS011;66341;52.418;7.382;2023-04-25T01:38:45;1.25;;;1.25;;
73154;SDS011;66341;52.418;7.382;2023-04-25T01:41:13;1.23;;;1.23;;
73154;SDS011;66341;52.418;7.382;2023-04-25T01:43:39;1.20;;;1.20;;
73154;SDS011;66341;52.418;7.382;2023-04-25T01:46:05;1.07;;;1.07;;
73154;SDS011;66341;52.418;7.382;2023-04-25T01:48:32;1.12;;;1.12;;
73154;SDS011;66341;52.418;7.382;2023-04-25T01:50:57;1.09;;;1.09;;
73154;SDS011;66341;52.418;7.382;2023-04-25T01:53:23;1.15;;;1.15;;
73154;SDS011;66341;52.418;7.382;2023-04-25T01:55:49;1.21;;;1.21;;
73154;SDS011;66341;52.418;7.382;2023-04-25T01:58:14;1.10;;;1.10;;
73154;SDS011;66341;52.418;7.382;2023-04-25T02:00:40;1.38;;;1.38;;
73154;SDS011;66341;52.418;7.382;2023-04-25T02:03:06;1.06;;;1.06;;
73154;SDS011;66341;52.418;7.382;2023-04-25T02:05:36;1.09;;;1.09;;
73154;SDS011;66341;52.418;7.382;2023-04-25T02:08:02;1.08;;;1.08;;
73154;SDS011;66341;52.418;7.382;2023-04-25T02:10:28;1.11;;;1.11;;
73154;SDS011;66341;52.418;7.382;2023-04-25T02:12:54;1.16;;;1.16;;
73154;SDS011;66341;52.418;7.382;2023-04-25T02:15:20;1.24;;;1.24;;
73154;SDS011;66341;52.418;7.382;2023-04-25T02:17:45;1.07;;;1.07;;
73154;SDS011;66341;52.418;7.382;2023-04-25T02:20:11;1.13;;;1.13;;
73154;SDS011;66341;52.418;7.382;2023-04-25T02:22:37;1.00;;;1.00;;
73154;SDS011;66341;52.418;7.382;2023-04-25T02:25:03;1.12;;;1.12;;
73154;SDS011;66341;52.418;7.382;2023-04-25T02:27:30;1.15;;;1.15;;
73154;SDS011;66341;52.418;7.382;2023-04-25T02:29:55;1.05;;;1.05;;
73154;SDS011;66341;52.418;7.382;2023-04-25T02:32:21;0.96;;;0.96;;
73154;SDS011;66341;52.418;7.382;2023-04-25T02:34:46;0.99;;;0.99;;
73154;SDS011;66341;52.418;7.382;2023-04-25T02:37:13;1.03;;;1.03;;
73154;SDS011;66341;52.418;7.382;2023-04-25T02:39:39;1.17;;;1.17;;
73154;SDS011;66341;52.418;7.382;2023-04-25T02:42:04;0.99;;;0.99;;
73154;SDS011;66341;52.418;7.382;2023-04-25T02:44:30;1.03;;;1.03;;
73154;SDS011;66341;52.418;7.382;2023-04-25T02:46:55;1.15;;;1.15;;
73154;SDS011;66341;52.418;7.382;2023-04-25T02:49:20;1.08;;;1.08;;
73154;SDS011;66341;52.418;7.382;2023-04-25T02:51:46;1.15;;;1.15;;
73154;SDS011;66341;52.418;7.382;2023-04-25T02:54:11;1.08;;;1.08;;
73154;SDS011;66341;52.418;7.382;2023-04-25T02:56:37;0.99;;;0.99;;
73154;SDS011;66341;52.418;7.382;2023-04-25T02:59:02;1.13;;;1.13;;
73154;SDS011;66341;52.418;7.382;2023-04-25T03:01:28;1.01;;;1.01;;
73154;SDS011;66341;52.418;7.382;2023-04-25T03:03:54;1.05;;;1.05;;
73154;SDS011;66341;52.418;7.382;2023-04-25T03:06:19;1.15;;;1.15;;
73154;SDS011;66341;52.418;7.382;2023-04-25T03:08:45;1.03;;;1.03;;
73154;SDS011;66341;52.418;7.382;2023-04-25T03:11:10;1.01;;;1.01;;
73154;SDS011;66341;52.418;7.382;2023-04-25T03:13:36;1.11;;;1.11;;
73154;SDS011;66341;52.418;7.382;2023-04-25T03:16:01;0.95;;;0.95;;
73154;SDS011;66341;52.418;7.382;2023-04-25T03:18:27;1.04;;;1.04;;
73154;SDS011;66341;52.418;7.382;2023-04-25T03:20:52;0.80;;;0.80;;
73154;SDS011;66341;52.418;7.382;2023-04-25T03:23:17;1.03;;;1.03;;
73154;SDS011;66341;52.418;7.382;2023-04-25T03:25:43;1.07;;;1.07;;
73154;SDS011;66341;52.418;7.382;2023-04-25T03:28:08;0.94;;;0.94;;
73154;SDS011;66341;52.418;7.382;2023-04-25T03:30:34;1.19;;;1.19;;
73154;SDS011;66341;52.418;7.382;2023-04-25T03:32:59;1.11;;;1.11;;
73154;SDS011;66341;52.418;7.382;2023-04-25T03:35:25;1.08;;;1.08;;
73154;SDS011;66341;52.418;7.382;2023-04-25T03:37:50;0.93;;;0.93;;
73154;SDS011;66341;52.418;7.382;2023-04-25T03:40:17;0.88;;;0.88;;
73154;SDS011;66341;52.418;7.382;2023-04-25T03:42:42;0.89;;;0.89;;
73154;SDS011;66341;52.418;7.382;2023-04-25T03:45:08;0.99;;;0.99;;
73154;SDS011;66341;52.418;7.382;2023-04-25T03:47:33;0.97;;;0.97;;
73154;SDS011;66341;52.418;7.382;2023-04-25T03:49:59;1.00;;;1.00;;
73154;SDS011;66341;52.418;7.382;2023-04-25T03:52:26;0.98;;;0.98;;
73154;SDS011;66341;52.418;7.382;2023-04-25T03:54:52;1.07;;;1.07;;
73154;SDS011;66341;52.418;7.382;2023-04-25T03:57:17;0.99;;;0.99;;
73154;SDS011;66341;52.418;7.382;2023-04-25T03:59:42;0.92;;;0.92;;
73154;SDS011;66341;52.418;7.382;2023-04-25T04:02:08;0.92;;;0.92;;
73154;SDS011;66341;52.418;7.382;2023-04-25T04:04:34;0.77;;;0.77;;
73154;SDS011;66341;52.418;7.382;2023-04-25T04:06:59;0.99;;;0.99;;
73154;SDS011;66341;52.418;7.382;2023-04-25T04:09:25;0.99;;;0.99;;
73154;SDS011;66341;52.418;7.382;2023-04-25T04:11:51;1.06;;;1.06;;
73154;SDS011;66341;52.418;7.382;2023-04-25T04:14:16;1.04;;;1.04;;
73154;SDS011;66341;52.418;7.382;2023-04-25T04:16:42;1.03;;;1.03;;
73154;SDS011;66341;52.418;7.382;2023-04-25T04:19:08;0.95;;;0.95;;
73154;SDS011;66341;52.418;7.382;2023-04-25T04:21:33;0.81;;;0.81;;
73154;SDS011;66341;52.418;7.382;2023-04-25T04:23:59;0.90;;;0.90;;
73154;SDS011;66341;52.418;7.382;2023-04-25T04:26:25;0.90;;;0.90;;
73154;SDS011;66341;52.418;7.382;2023-04-25T04:28:51;0.96;;;0.96;;
73154;SDS011;66341;52.418;7.382;2023-04-25T04:31:17;0.80;;;0.80;;
73154;SDS011;66341;52.418;7.382;2023-04-25T04:33:44;0.91;;;0.91;;
73154;SDS011;66341;52.418;7.382;2023-04-25T04:36:11;0.83;;;0.83;;
73154;SDS011;66341;52.418;7.382;2023-04-25T04:38:36;0.86;;;0.86;;
73154;SDS011;66341;52.418;7.382;2023-04-25T04:41:02;0.98;;;0.98;;
73154;SDS011;66341;52.418;7.382;2023-04-25T04:43:28;0.87;;;0.87;;
73154;SDS011;66341;52.418;7.382;2023-04-25T04:45:55;0.85;;;0.85;;
73154;SDS011;66341;52.418;7.382;2023-04-25T04:48:22;0.82;;;0.82;;
73154;SDS011;66341;52.418;7.382;2023-04-25T04:50:47;0.81;;;0.81;;
73154;SDS011;66341;52.418;7.382;2023-04-25T04:53:13;0.81;;;0.81;;
73154;SDS011;66341;52.418;7.382;2023-04-25T04:55:39;0.84;;;0.84;;
73154;SDS011;66341;52.418;7.382;2023-04-25T04:58:06;1.48;;;1.47;;
73154;SDS011;66341;52.418;7.382;2023-04-25T05:00:32;1.63;;;1.57;;
73154;SDS011;66341;52.418;7.382;2023-04-25T05:02:58;1.51;;;1.43;;
73154;SDS011;66341;52.418;7.382;2023-04-25T05:10:32;1.21;;;1.14;;
73154;SDS011;66341;52.418;7.382;2023-04-25T05:13:00;1.17;;;1.10;;
73154;SDS011;66341;52.418;7.382;2023-04-25T05:15:26;1.30;;;1.24;;
73154;SDS011;66341;52.418;7.382;2023-04-25T05:17:54;1.38;;;1.32;;
73154;SDS011;66341;52.418;7.382;2023-04-25T05:20:19;1.34;;;1.27;;
73154;SDS011;66341;52.418;7.382;2023-04-25T05:22:45;1.35;;;1.26;;
73154;SDS011;66341;52.418;7.382;2023-04-25T05:25:13;1.14;;;1.06;;
73154;SDS011;66341;52.418;7.382;2023-04-25T05:27:42;1.54;;;1.42;;
73154;SDS011;66341;52.418;7.382;2023-04-25T05:30:11;1.45;;;1.31;;
73154;SDS011;66341;52.418;7.382;2023-04-25T05:32:39;1.59;;;1.42;;
73154;SDS011;66341;52.418;7.382;2023-04-25T05:35:08;1.62;;;1.44;;
73154;SDS011;66341;52.418;7.382;2023-04-25T05:37:34;1.28;;;1.16;;
73154;SDS011;66341;52.418;7.382;2023-04-25T05:40:00;1.39;;;1.28;;
73154;SDS011;66341;52.418;7.382;2023-04-25T05:42:51;1.48;;;1.35;;
73154;SDS011;66341;52.418;7.382;2023-04-25T05:45:25;1.47;;;1.35;;
73154;SDS011;66341;52.418;7.382;2023-04-25T05:47:51;1.46;;;1.36;;
73154;SDS011;66341;52.418;7.382;2023-04-25T05:50:22;1.54;;;1.41;;
73154;SDS011;66341;52.418;7.382;2023-04-25T05:52:48;1.53;;;1.40;;
73154;SDS011;66341;52.418;7.382;2023-04-25T05:55:19;1.36;;;1.24;;
73154;SDS011;66341;52.418;7.382;2023-04-25T05:57:44;1.47;;;1.36;;
73154;SDS011;66341;52.418;7.382;2023-04-25T06:00:11;1.35;;;1.24;;
73154;SDS011;66341;52.418;7.382;2023-04-25T06:02:37;1.43;;;1.31;;
73154;SDS011;66341;52.418;7.382;2023-04-25T06:05:02;1.37;;;1.25;;
73154;SDS011;66341;52.418;7.382;2023-04-25T06:07:28;1.42;;;1.31;;
73154;SDS011;66341;52.418;7.382;2023-04-25T06:09:55;1.27;;;1.16;;
73154;SDS011;66341;52.418;7.382;2023-04-25T06:12:21;1.39;;;1.26;;
73154;SDS011;66341;52.418;7.382;2023-04-25T06:14:46;1.37;;;1.24;;
73154;SDS011;66341;52.418;7.382;2023-04-25T06:17:12;1.30;;;1.18;;
73154;SDS011;66341;52.418;7.382;2023-04-25T06:19:37;1.49;;;1.34;;
73154;SDS011;66341;52.418;7.382;2023-04-25T06:22:02;1.41;;;1.27;;
73154;SDS011;66341;52.418;7.382;2023-04-25T06:24:28;1.72;;;1.53;;
73154;SDS011;66341;52.418;7.382;2023-04-25T06:26:54;1.84;;;1.63;;
73154;SDS011;66341;52.418;7.382;2023-04-25T06:29:20;1.50;;;1.35;;
73154;SDS011;66341;52.418;7.382;2023-04-25T06:31:46;1.54;;;1.40;;
73154;SDS011;66341;52.418;7.382;2023-04-25T06:34:11;1.49;;;1.35;;
73154;SDS011;66341;52.418;7.382;2023-04-25T06:36:37;1.48;;;1.35;;
73154;SDS011;66341;52.418;7.382;2023-04-25T06:39:02;1.61;;;1.48;;
73154;SDS011;66341;52.418;7.382;2023-04-25T06:41:28;1.45;;;1.32;;
73154;SDS011;66341;52.418;7.382;2023-04-25T06:43:53;1.16;;;1.07;;
73154;SDS011;66341;52.418;7.382;2023-04-25T06:46:19;1.40;;;1.28;;
73154;SDS011;66341;52.418;7.382;2023-04-25T06:48:45;1.52;;;1.38;;
73154;SDS011;66341;52.418;7.382;2023-04-25T06:51:10;1.47;;;1.34;;
73154;SDS011;66341;52.418;7.382;2023-04-25T06:53:35;1.41;;;1.28;;
73154;SDS011;66341;52.418;7.382;2023-04-25T06:56:02;1.45;;;1.31;;
73154;SDS011;66341;52.418;7.382;2023-04-25T06:58:28;1.41;;;1.29;;
73154;SDS011;66341;52.418;7.382;2023-04-25T07:00:53;1.36;;;1.24;;
73154;SDS011;66341;52.418;7.382;2023-04-25T07:03:19;1.35;;;1.23;;
73154;SDS011;66341;52.418;7.382;2023-04-25T07:05:45;1.31;;;1.19;;
73154;SDS011;66341;52.418;7.382;2023-04-25T07:08:11;1.21;;;1.10;;
73154;SDS011;66341;52.418;7.382;2023-04-25T07:10:36;1.46;;;1.32;;
73154;SDS011;66341;52.418;7.382;2023-04-25T07:13:02;1.26;;;1.15;;
73154;SDS011;66341;52.418;7.382;2023-04-25T07:15:28;1.20;;;1.11;;
73154;SDS011;66341;52.418;7.382;2023-04-25T07:17:54;1.07;;;1.00;;
73154;SDS011;66341;52.418;7.382;2023-04-25T07:20:19;1.33;;;1.22;;
73154;SDS011;66341;52.418;7.382;2023-04-25T07:22:45;1.29;;;1.18;;
73154;SDS011;66341;52.418;7.382;2023-04-25T07:25:10;1.24;;;1.13;;
73154;SDS011;66341;52.418;7.382;2023-04-25T07:27:36;1.22;;;1.13;;
73154;SDS011;66341;52.418;7.382;2023-04-25T07:30:02;1.05;;;0.98;;
73154;SDS011;66341;52.418;7.382;2023-04-25T07:32:29;1.11;;;1.03;;
73154;SDS011;66341;52.418;7.382;2023-04-25T07:34:54;1.22;;;1.14;;
73154;SDS011;66341;52.418;7.382;2023-04-25T07:37:20;0.98;;;0.92;;
73154;SDS011;66341;52.418;7.382;2023-04-25T07:39:45;1.14;;;1.04;;
73154;SDS011;66341;52.418;7.382;2023-04-25T07:42:12;1.24;;;1.14;;
73154;SDS011;66341;52.418;7.382;2023-04-25T07:44:37;1.31;;;1.21;;
73154;SDS011;66341;52.418;7.382;2023-04-25T07:47:04;1.19;;;1.09;;
73154;SDS011;66341;52.418;7.382;2023-04-25T07:49:32;1.38;;;1.26;;
73154;SDS011;66341;52.418;7.382;2023-04-25T07:51:59;1.24;;;1.13;;
73154;SDS011;66341;52.418;7.382;2023-04-25T07:54:24;1.21;;;1.12;;
73154;SDS011;66341;52.418;7.382;2023-04-25T07:56:50;1.26;;;1.16;;
73154;SDS011;66341;52.418;7.382;2023-04-25T07:59:15;1.36;;;1.23;;
73154;SDS011;66341;52.418;7.382;2023-04-25T08:01:41;1.49;;;1.34;;
73154;SDS011;66341;52.418;7.382;2023-04-25T08:04:06;1.67;;;1.47;;
73154;SDS011;66341;52.418;7.382;2023-04-25T08:06:32;1.76;;;1.53;;
73154;SDS011;66341;52.418;7.382;2023-04-25T08:08:58;1.78;;;1.51;;
73154;SDS011;66341;52.418;7.382;2023-04-25T08:11:23;2.36;;;1.96;;
73154;SDS011;66341;52.418;7.382;2023-04-25T08:13:49;2.31;;;1.88;;
73154;SDS011;66341;52.418;7.382;2023-04-25T08:16:14;3.09;;;2.44;;
73154;SDS011;66341;52.418;7.382;2023-04-25T08:18:39;3.44;;;2.58;;
73154;SDS011;66341;52.418;7.382;2023-04-25T08:21:05;3.53;;;2.68;;
73154;SDS011;66341;52.418;7.382;2023-04-25T08:23:32;3.32;;;2.51;;
73154;SDS011;66341;52.418;7.382;2023-04-25T08:25:57;3.53;;;2.62;;
73154;SDS011;66341;52.418;7.382;2023-04-25T08:28:23;3.46;;;2.58;;
73154;SDS011;66341;52.418;7.382;2023-04-25T08:30:48;3.55;;;2.67;;
73154;SDS011;66341;52.418;7.382;2023-04-25T08:33:13;3.58;;;2.70;;
73154;SDS011;66341;52.418;7.382;2023-04-25T08:35:39;3.12;;;2.35;;
73154;SDS011;66341;52.418;7.382;2023-04-25T08:38:05;2.61;;;2.03;;
73154;SDS011;66341;52.418;7.382;2023-04-25T08:40:30;2.32;;;1.84;;
73154;SDS011;66341;52.418;7.382;2023-04-25T08:43:00;2.12;;;1.72;;
73154;SDS011;66341;52.418;7.382;2023-04-25T08:45:28;2.33;;;1.92;;
73154;SDS011;66341;52.418;7.382;2023-04-25T08:47:57;2.33;;;1.92;;
73154;SDS011;66341;52.418;7.382;2023-04-25T08:50:22;2.11;;;1.72;;
73154;SDS011;66341;52.418;7.382;2023-04-25T08:52:49;2.36;;;1.89;;
73154;SDS011;66341;52.418;7.382;2023-04-25T08:55:17;2.64;;;2.07;;
73154;SDS011;66341;52.418;7.382;2023-04-25T08:57:44;2.30;;;1.84;;
73154;SDS011;66341;52.418;7.382;2023-04-25T09:00:10;2.25;;;1.82;;
73154;SDS011;66341;52.418;7.382;2023-04-25T09:02:38;2.18;;;1.80;;
73154;SDS011;66341;52.418;7.382;2023-04-25T09:07:43;1.98;;;1.64;;
73154;SDS011;66341;52.418;7.382;2023-04-25T09:10:17;2.39;;;2.02;;
73154;SDS011;66341;52.418;7.382;2023-04-25T09:12:42;2.38;;;2.03;;
73154;SDS011;66341;52.418;7.382;2023-04-25T09:15:09;2.04;;;1.73;;
73154;SDS011;66341;52.418;7.382;2023-04-25T09:17:35;2.38;;;2.05;;
73154;SDS011;66341;52.418;7.382;2023-04-25T09:20:06;2.27;;;1.94;;
73154;SDS011;66341;52.418;7.382;2023-04-25T09:22:33;1.97;;;1.71;;
73154;SDS011;66341;52.418;7.382;2023-04-25T09:25:01;1.99;;;1.77;;
73154;SDS011;66341;52.418;7.382;2023-04-25T09:27:27;2.12;;;1.91;;
73154;SDS011;66341;52.418;7.382;2023-04-25T09:29:59;2.07;;;1.87;;
73154;SDS011;66341;52.418;7.382;2023-04-25T09:32:25;2.36;;;2.16;;
73154;SDS011;66341;52.418;7.382;2023-04-25T09:34:52;1.96;;;1.78;;
73154;SDS011;66341;52.418;7.382;2023-04-25T09:39:45;2.11;;;1.90;;
73154;SDS011;66341;52.418;7.382;2023-04-25T09:42:15;2.36;;;2.12;;
73154;SDS011;66341;52.418;7.382;2023-04-25T09:44:45;2.07;;;1.88;;
73154;SDS011;66341;52.418;7.382;2023-04-25T09:47:14;1.68;;;1.55;;
73154;SDS011;66341;52.418;7.382;2023-04-25T09:49:43;1.69;;;1.56;;
73154;SDS011;66341;52.418;7.382;2023-04-25T09:52:25;1.53;;;1.42;;
73154;SDS011;66341;52.418;7.382;2023-04-25T09:54:55;1.67;;;1.57;;
73154;SDS011;66341;52.418;7.382;2023-04-25T09:57:24;1.65;;;1.56;;
73154;SDS011;66341;52.418;7.382;2023-04-25T10:00:00;1.60;;;1.51;;
73154;SDS011;66341;52.418;7.382;2023-04-25T10:05:29;1.52;;;1.44;;
73154;SDS011;66341;52.418;7.382;2023-04-25T10:08:12;1.44;;;1.38;;
73154;SDS011;66341;52.418;7.382;2023-04-25T10:11:06;1.38;;;1.32;;
73154;SDS011;66341;52.418;7.382;2023-04-25T10:13:33;1.33;;;1.27;;
73154;SDS011;66341;52.418;7.382;2023-04-25T10:16:02;1.31;;;1.24;;
73154;SDS011;66341;52.418;7.382;2023-04-25T10:18:32;1.39;;;1.33;;
73154;SDS011;66341;52.418;7.382;2023-04-25T10:21:02;1.36;;;1.31;;
73154;SDS011;66341;52.418;7.382;2023-04-25T10:23:33;1.43;;;1.37;;
73154;SDS011;66341;52.418;7.382;2023-04-25T10:26:08;1.34;;;1.30;;
73154;SDS011;66341;52.418;7.382;2023-04-25T10:31:23;1.19;;;1.19;;
73154;SDS011;66341;52.418;7.382;2023-04-25T10:33:49;1.12;;;1.12;;
73154;SDS011;66341;52.418;7.382;2023-04-25T10:36:18;1.20;;;1.20;;
73154;SDS011;66341;52.418;7.382;2023-04-25T10:38:49;1.18;;;1.18;;
73154;SDS011;66341;52.418;7.382;2023-04-25T10:41:20;1.16;;;1.16;;
73154;SDS011;66341;52.418;7.382;2023-04-25T10:43:49;1.28;;;1.28;;
73154;SDS011;66341;52.418;7.382;2023-04-25T10:46:27;1.20;;;1.20;;
73154;SDS011;66341;52.418;7.382;2023-04-25T10:48:57;1.17;;;1.17;;
73154;SDS011;66341;52.418;7.382;2023-04-25T10:51:25;1.35;;;1.35;;
73154;SDS011;66341;52.418;7.382;2023-04-25T10:56:21;1.14;;;1.12;;
73154;SDS011;66341;52.418;7.382;2023-04-25T10:58:47;1.08;;;1.06;;
73154;SDS011;66341;52.418;7.382;2023-04-25T11:01:13;1.04;;;1.02;;
73154;SDS011;66341;52.418;7.382;2023-04-25T11:03:43;1.02;;;1.02;;
73154;SDS011;66341;52.418;7.382;2023-04-25T11:06:12;1.05;;;1.05;;
73154;SDS011;66341;52.418;7.382;2023-04-25T11:08:48;1.21;;;1.21;;
73154;SDS011;66341;52.418;7.382;2023-04-25T11:11:18;1.09;;;1.09;;
73154;SDS011;66341;52.418;7.382;2023-04-25T11:13:44;0.99;;;0.99;;
73154;SDS011;66341;52.418;7.382;2023-04-25T11:16:13;1.10;;;1.08;;
73154;SDS011;66341;52.418;7.382;2023-04-25T11:18:40;1.11;;;1.09;;
73154;SDS011;66341;52.418;7.382;2023-04-25T11:21:06;0.96;;;0.95;;
73154;SDS011;66341;52.418;7.382;2023-04-25T11:23:32;0.99;;;0.98;;
73154;SDS011;66341;52.418;7.382;2023-04-25T11:25:57;0.92;;;0.90;;
73154;SDS011;66341;52.418;7.382;2023-04-25T11:28:25;0.94;;;0.93;;
73154;SDS011;66341;52.418;7.382;2023-04-25T11:30:51;1.01;;;1.01;;
73154;SDS011;66341;52.418;7.382;2023-04-25T11:33:17;1.00;;;1.00;;
73154;SDS011;66341;52.418;7.382;2023-04-25T11:35:43;1.04;;;1.04;;
73154;SDS011;66341;52.418;7.382;2023-04-25T11:38:09;0.88;;;0.88;;
73154;SDS011;66341;52.418;7.382;2023-04-25T11:40:36;0.88;;;0.88;;
73154;SDS011;66341;52.418;7.382;2023-04-25T11:43:01;0.95;;;0.95;;
73154;SDS011;66341;52.418;7.382;2023-04-25T11:45:27;0.89;;;0.89;;
73154;SDS011;66341;52.418;7.382;2023-04-25T11:47:55;0.99;;;0.99;;
73154;SDS011;66341;52.418;7.382;2023-04-25T11:50:20;0.92;;;0.92;;
73154;SDS011;66341;52.418;7.382;2023-04-25T11:52:46;0.97;;;0.97;;
73154;SDS011;66341;52.418;7.382;2023-04-25T11:55:14;0.84;;;0.84;;
73154;SDS011;66341;52.418;7.382;2023-04-25T11:57:40;1.00;;;1.00;;
73154;SDS011;66341;52.418;7.382;2023-04-25T12:00:07;0.92;;;0.91;;
73154;SDS011;66341;52.418;7.382;2023-04-25T12:02:37;0.93;;;0.92;;
73154;SDS011;66341;52.418;7.382;2023-04-25T12:05:06;0.82;;;0.81;;
73154;SDS011;66341;52.418;7.382;2023-04-25T12:07:33;0.89;;;0.88;;
73154;SDS011;66341;52.418;7.382;2023-04-25T12:09:59;0.77;;;0.77;;
73154;SDS011;66341;52.418;7.382;2023-04-25T12:12:32;1.09;;;1.09;;
73154;SDS011;66341;52.418;7.382;2023-04-25T12:15:08;0.84;;;0.84;;
73154;SDS011;66341;52.418;7.382;2023-04-25T12:17:35;0.94;;;0.94;;
73154;SDS011;66341;52.418;7.382;2023-04-25T12:20:11;0.94;;;0.94;;
73154;SDS011;66341;52.418;7.382;2023-04-25T12:22:39;0.83;;;0.83;;
73154;SDS011;66341;52.418;7.382;2023-04-25T12:25:13;0.83;;;0.83;;
73154;SDS011;66341;52.418;7.382;2023-04-25T12:27:40;0.78;;;0.78;;
73154;SDS011;66341;52.418;7.382;2023-04-25T12:30:09;0.79;;;0.79;;
73154;SDS011;66341;52.418;7.382;2023-04-25T12:32:38;0.92;;;0.92;;
73154;SDS011;66341;52.418;7.382;2023-04-25T12:35:05;0.82;;;0.82;;
73154;SDS011;66341;52.418;7.382;2023-04-25T12:37:31;0.83;;;0.83;;
73154;SDS011;66341;52.418;7.382;2023-04-25T12:39:57;0.86;;;0.86;;
73154;SDS011;66341;52.418;7.382;2023-04-25T12:42:22;0.79;;;0.79;;
73154;SDS011;66341;52.418;7.382;2023-04-25T12:44:48;0.74;;;0.74;;
73154;SDS011;66341;52.418;7.382;2023-04-25T12:47:13;0.79;;;0.79;;
73154;SDS011;66341;52.418;7.382;2023-04-25T12:49:39;0.76;;;0.76;;
73154;SDS011;66341;52.418;7.382;2023-04-25T12:52:05;0.70;;;0.70;;
73154;SDS011;66341;52.418;7.382;2023-04-25T12:54:30;0.71;;;0.71;;
73154;SDS011;66341;52.418;7.382;2023-04-25T12:56:56;0.62;;;0.62;;
73154;SDS011;66341;52.418;7.382;2023-04-25T12:59:22;0.81;;;0.81;;
73154;SDS011;66341;52.418;7.382;2023-04-25T13:01:48;0.69;;;0.69;;
73154;SDS011;66341;52.418;7.382;2023-04-25T13:04:14;0.87;;;0.87;;
73154;SDS011;66341;52.418;7.382;2023-04-25T13:06:40;0.71;;;0.71;;
73154;SDS011;66341;52.418;7.382;2023-04-25T13:09:05;0.86;;;0.86;;
73154;SDS011;66341;52.418;7.382;2023-04-25T13:11:32;0.88;;;0.88;;
73154;SDS011;66341;52.418;7.382;2023-04-25T13:13:57;0.83;;;0.83;;
73154;SDS011;66341;52.418;7.382;2023-04-25T13:16:23;0.82;;;0.82;;
73154;SDS011;66341;52.418;7.382;2023-04-25T13:18:49;1.03;;;1.02;;
73154;SDS011;66341;52.418;7.382;2023-04-25T13:21:14;0.99;;;0.97;;
73154;SDS011;66341;52.418;7.382;2023-04-25T13:26:15;1.40;;;1.32;;
73154;SDS011;66341;52.418;7.382;2023-04-25T13:28:41;1.82;;;1.57;;
73154;SDS011;66341;52.418;7.382;2023-04-25T13:31:06;1.86;;;1.51;;
73154;SDS011;66341;52.418;7.382;2023-04-25T13:33:32;1.59;;;1.29;;
73154;SDS011;66341;52.418;7.382;2023-04-25T13:36:00;1.96;;;1.61;;
73154;SDS011;66341;52.418;7.382;2023-04-25T13:38:26;1.94;;;1.56;;
73154;SDS011;66341;52.418;7.382;2023-04-25T13:40:52;2.32;;;1.79;;
73154;SDS011;66341;52.418;7.382;2023-04-25T13:43:20;2.21;;;1.68;;
73154;SDS011;66341;52.418;7.382;2023-04-25T13:45:49;1.93;;;1.47;;
73154;SDS011;66341;52.418;7.382;2023-04-25T13:48:15;1.94;;;1.48;;
73154;SDS011;66341;52.418;7.382;2023-04-25T13:50:40;2.09;;;1.56;;
73154;SDS011;66341;52.418;7.382;2023-04-25T13:53:06;1.91;;;1.43;;
73154;SDS011;66341;52.418;7.382;2023-04-25T13:55:33;2.26;;;1.73;;
73154;SDS011;66341;52.418;7.382;2023-04-25T13:58:00;2.01;;;1.54;;
73154;SDS011;66341;52.418;7.382;2023-04-25T14:00:32;1.58;;;1.23;;
73154;SDS011;66341;52.418;7.382;2023-04-25T14:02:58;1.92;;;1.48;;
73154;SDS011;66341;52.418;7.382;2023-04-25T14:05:23;2.06;;;1.57;;
73154;SDS011;66341;52.418;7.382;2023-04-25T14:07:49;1.66;;;1.29;;
73154;SDS011;66341;52.418;7.382;2023-04-25T14:10:15;1.65;;;1.30;;
73154;SDS011;66341;52.418;7.382;2023-04-25T14:12:41;1.63;;;1.29;;
73154;SDS011;66341;52.418;7.382;2023-04-25T14:15:06;1.48;;;1.17;;
73154;SDS011;66341;52.418;7.382;2023-04-25T14:17:32;1.25;;;1.01;;
73154;SDS011;66341;52.418;7.382;2023-04-25T14:19:57;1.55;;;1.26;;
73154;SDS011;66341;52.418;7.382;2023-04-25T14:22:23;1.20;;;0.99;;
73154;SDS011;66341;52.418;7.382;2023-04-25T14:24:48;1.21;;;1.02;;
73154;SDS011;66341;52.418;7.382;2023-04-25T14:27:14;1.39;;;1.19;;
73154;SDS011;66341;52.418;7.382;2023-04-25T14:29:39;1.64;;;1.40;;
73154;SDS011;66341;52.418;7.382;2023-04-25T14:32:05;1.33;;;1.13;;
73154;SDS011;66341;52.418;7.382;2023-04-25T14:34:30;1.28;;;1.07;;
73154;SDS011;66341;52.418;7.382;2023-04-25T14:36:56;1.28;;;1.07;;
73154;SDS011;66341;52.418;7.382;2023-04-25T14:39:22;1.29;;;1.07;;
73154;SDS011;66341;52.418;7.382;2023-04-25T14:41:47;1.32;;;1.12;;
73154;SDS011;66341;52.418;7.382;2023-04-25T14:44:12;1.08;;;0.92;;
73154;SDS011;66341;52.418;7.382;2023-04-25T14:46:38;1.23;;;1.06;;
73154;SDS011;66341;52.418;7.382;2023-04-25T14:49:04;1.04;;;0.90;;
73154;SDS011;66341;52.418;7.382;2023-04-25T14:51:30;1.20;;;1.05;;
73154;SDS011;66341;52.418;7.382;2023-04-25T14:53:56;1.24;;;1.06;;
73154;SDS011;66341;52.418;7.382;2023-04-25T14:56:22;1.11;;;0.95;;
73154;SDS011;66341;52.418;7.382;2023-04-25T14:58:47;0.97;;;0.84;;
73154;SDS011;66341;52.418;7.382;2023-04-25T15:01:13;1.06;;;0.94;;
73154;SDS011;66341;52.418;7.382;2023-04-25T15:03:39;1.07;;;0.95;;
73154;SDS011;66341;52.418;7.382;2023-04-25T15:06:05;1.13;;;0.99;;